createdAt,value
2024-01-05T00:00:16.853Z,87.34
2024-01-05T00:01:16.811Z,87.79
2024-01-05T00:02:16.845Z,87.20
2024-01-05T00:03:16.938Z,86.67
2024-01-05T00:04:16.860Z,87.89
2024-01-05T00:05:16.834Z,87.95
2024-01-05T00:06:16.859Z,86.99
2024-01-05T00:07:16.795Z,86.80
2024-01-05T00:08:16.831Z,85.71
2024-01-05T00:09:16.849Z,88.54
2024-01-05T00:10:16.915Z,88.01
2024-01-05T00:11:16.839Z,89.67
2024-01-05T00:12:16.873Z,85.15
2024-01-05T00:13:16.879Z,87.47
2024-01-05T00:14:16.907Z,87.24
2024-01-05T00:15:17.102Z,87.78
2024-01-05T00:16:16.941Z,87.31
2024-01-05T00:17:16.983Z,86.47
2024-01-05T00:18:17.182Z,86.76
2024-01-05T00:19:17.230Z,87.12
2024-01-05T00:20:17.382Z,84.44
2024-01-05T00:21:17.224Z,85.42
2024-01-05T00:22:17.291Z,87.00
2024-01-05T00:23:17.325Z,85.54
2024-01-05T00:24:17.454Z,86.13
2024-01-05T00:25:17.430Z,85.96
2024-01-05T00:26:17.472Z,86.66
2024-01-05T00:27:17.488Z,86.46
2024-01-05T00:28:17.552Z,86.50
2024-01-05T00:29:17.611Z,87.08
2024-01-05T00:30:17.750Z,84.98
2024-01-05T00:31:17.830Z,86.26
2024-01-05T00:32:19.044Z,84.66
2024-01-05T00:33:17.925Z,83.36
2024-01-05T00:34:17.908Z,85.76
2024-01-05T00:35:17.926Z,84.37
2024-01-05T00:36:18.011Z,86.42
2024-01-05T00:37:18.004Z,85.22
2024-01-05T00:38:18.069Z,84.99
2024-01-05T00:39:18.153Z,85.53
2024-01-05T00:40:18.169Z,85.24
2024-01-05T00:41:18.213Z,84.54
2024-01-05T00:42:18.331Z,84.31
2024-01-05T00:43:18.389Z,85.63
2024-01-05T00:44:18.378Z,84.04
2024-01-05T00:45:18.542Z,87.86
2024-01-05T00:46:18.473Z,84.54
2024-01-05T00:47:18.520Z,86.27
2024-01-05T00:48:18.739Z,83.85
2024-01-05T00:49:18.644Z,83.85
2024-01-05T00:50:18.649Z,84.04
2024-01-05T00:51:18.730Z,84.99
2024-01-05T00:52:18.788Z,85.34
2024-01-05T00:53:18.827Z,82.92
2024-01-05T00:54:18.972Z,82.10
2024-01-05T00:55:19.021Z,86.39
2024-01-05T00:56:18.966Z,84.28
2024-01-05T00:57:19.102Z,84.78
2024-01-05T00:58:19.822Z,83.68
2024-01-05T00:59:19.246Z,84.54
2024-01-05T01:00:19.212Z,85.02
2024-01-05T01:01:19.309Z,86.19
2024-01-05T01:02:19.278Z,83.41
2024-01-05T01:03:19.413Z,82.49
2024-01-05T01:04:19.502Z,84.09
2024-01-05T01:05:19.443Z,83.04
2024-01-05T01:06:19.524Z,82.31
2024-01-05T01:07:19.514Z,82.88
2024-01-05T01:08:19.549Z,81.42
2024-01-05T01:09:19.681Z,83.78
2024-01-05T01:10:19.657Z,81.67
2024-01-05T01:11:19.683Z,82.76
2024-01-05T01:12:19.714Z,83.49
2024-01-05T01:13:19.747Z,82.56
2024-01-05T01:14:19.880Z,84.06
2024-01-05T01:15:19.849Z,83.06
2024-01-05T01:16:19.866Z,82.88
2024-01-05T01:17:20.009Z,82.92
2024-01-05T01:18:20.139Z,82.38
2024-01-05T01:19:20.111Z,83.69
2024-01-05T01:20:20.056Z,82.59
2024-01-05T01:21:20.133Z,81.84
2024-01-05T01:22:20.124Z,81.98
2024-01-05T01:23:20.174Z,82.93
2024-01-05T01:24:20.254Z,80.15
2024-01-05T01:25:20.247Z,80.62
2024-01-05T01:26:20.274Z,81.51
2024-01-05T01:27:20.296Z,80.41
2024-01-05T01:28:20.347Z,82.17
2024-01-05T01:29:20.333Z,81.16
2024-01-05T01:30:20.475Z,81.19
2024-01-05T01:31:20.450Z,81.10
2024-01-05T01:32:20.458Z,81.30
2024-01-05T01:33:20.602Z,82.00
2024-01-05T01:34:20.656Z,81.10
2024-01-05T01:35:20.530Z,80.78
2024-01-05T01:36:20.594Z,79.37
2024-01-05T01:37:20.594Z,78.95
2024-01-05T01:38:20.624Z,79.15
2024-01-05T01:39:20.669Z,79.17
2024-01-05T01:40:20.641Z,79.34
2024-01-05T01:41:20.677Z,81.37
2024-01-05T01:42:20.783Z,76.43
2024-01-05T01:43:20.774Z,79.87
2024-01-05T01:44:20.738Z,80.19
2024-01-05T01:45:20.823Z,78.54
2024-01-05T01:46:20.782Z,79.08
2024-01-05T01:47:20.832Z,81.36
2024-01-05T01:48:21.129Z,79.06
2024-01-05T01:49:21.023Z,77.28
2024-01-05T01:50:20.937Z,78.98
2024-01-05T01:51:20.976Z,77.33
2024-01-05T01:52:20.963Z,77.65
2024-01-05T01:53:20.965Z,78.57
2024-01-05T01:54:21.104Z,79.51
2024-01-05T01:55:21.071Z,78.96
2024-01-05T01:56:21.090Z,78.44
2024-01-05T01:57:21.154Z,79.12
2024-01-05T01:58:21.114Z,77.42
2024-01-05T01:59:21.157Z,79.01
2024-01-05T02:00:21.194Z,80.44
2024-01-05T02:01:21.233Z,76.13
2024-01-05T02:02:21.181Z,79.32
2024-01-05T02:03:21.282Z,75.18
2024-01-05T02:04:21.452Z,78.92
2024-01-05T02:05:21.307Z,75.88
2024-01-05T02:06:21.364Z,78.94
2024-01-05T02:07:21.343Z,75.86
2024-01-05T02:08:21.380Z,76.97
2024-01-05T02:09:21.457Z,75.79
2024-01-05T02:10:21.478Z,75.99
2024-01-05T02:11:21.519Z,78.25
2024-01-05T02:12:21.559Z,77.35
2024-01-05T02:13:21.567Z,77.04
2024-01-05T02:14:21.594Z,77.21
2024-01-05T02:15:21.666Z,77.34
2024-01-05T02:16:21.644Z,76.20
2024-01-05T02:17:21.693Z,75.44
2024-01-05T02:18:21.841Z,74.21
2024-01-05T02:19:21.915Z,77.02
2024-01-05T02:20:21.801Z,78.52
2024-01-05T02:21:21.909Z,76.76
2024-01-05T02:22:21.906Z,77.14
2024-01-05T02:23:21.945Z,78.78
2024-01-05T02:24:22.062Z,75.52
2024-01-05T02:25:22.011Z,77.25
2024-01-05T02:26:22.042Z,74.35
2024-01-05T02:27:22.116Z,77.54
2024-01-05T02:28:22.070Z,75.68
2024-01-05T02:29:22.112Z,75.52
2024-01-05T02:30:22.330Z,75.27
2024-01-05T02:31:22.236Z,75.89
2024-01-05T02:32:22.283Z,76.98
2024-01-05T02:33:22.462Z,75.35
2024-01-05T02:34:22.434Z,75.29
2024-01-05T02:35:22.371Z,75.42
2024-01-05T02:36:22.458Z,75.30
2024-01-05T02:37:22.486Z,73.81
2024-01-05T02:38:22.511Z,76.35
2024-01-05T02:39:22.518Z,75.00
2024-01-05T02:40:22.517Z,77.33
2024-01-05T02:41:22.539Z,74.19
2024-01-05T02:42:22.614Z,74.54
2024-01-05T02:43:22.603Z,74.36
2024-01-05T02:44:22.638Z,76.30
2024-01-05T02:45:22.723Z,74.46
2024-01-05T02:46:22.746Z,74.24
2024-01-05T02:47:22.787Z,73.37
2024-01-05T02:48:23.047Z,75.94
2024-01-05T02:49:22.946Z,75.88
2024-01-05T02:50:22.927Z,76.69
2024-01-05T02:51:22.998Z,74.46
2024-01-05T02:52:22.969Z,73.66
2024-01-05T02:53:23.120Z,73.95
2024-01-05T02:54:23.121Z,76.03
2024-01-05T02:55:23.101Z,75.24
2024-01-05T02:56:23.131Z,74.33
2024-01-05T02:57:23.211Z,73.98
2024-01-05T02:58:23.262Z,73.46
2024-01-05T02:59:23.238Z,75.37
2024-01-05T03:00:23.336Z,74.68
2024-01-05T03:01:23.383Z,74.88
2024-01-05T03:02:23.396Z,72.83
2024-01-05T03:03:23.467Z,71.55
2024-01-05T03:04:23.467Z,72.66
2024-01-05T03:05:23.565Z,72.60
2024-01-05T03:06:23.552Z,75.69
2024-01-05T03:07:23.589Z,72.74
2024-01-05T03:08:23.652Z,73.03
2024-01-05T03:09:23.723Z,73.99
2024-01-05T03:10:23.729Z,74.29
2024-01-05T03:11:23.765Z,72.24
2024-01-05T03:12:23.838Z,75.44
2024-01-05T03:13:23.870Z,70.80
2024-01-05T03:14:23.894Z,72.16
2024-01-05T03:15:24.066Z,73.69
2024-01-05T03:16:23.992Z,72.84
2024-01-05T03:17:24.002Z,70.61
2024-01-05T03:18:24.141Z,71.98
2024-01-05T03:19:24.206Z,70.85
2024-01-05T03:20:24.161Z,71.48
2024-01-05T03:21:24.275Z,72.89
2024-01-05T03:22:24.246Z,71.38
2024-01-05T03:23:24.318Z,71.93
2024-01-05T03:24:24.820Z,71.76
2024-01-05T03:25:24.749Z,72.42
2024-01-05T03:26:24.425Z,70.27
2024-01-05T03:27:24.573Z,72.13
2024-01-05T03:28:24.563Z,70.54
2024-01-05T03:29:24.633Z,71.47
2024-01-05T03:30:24.690Z,69.75
2024-01-05T03:31:24.666Z,71.39
2024-01-05T03:32:24.755Z,71.00
2024-01-05T03:33:24.941Z,70.84
2024-01-05T03:34:24.854Z,71.19
2024-01-05T03:35:24.858Z,72.22
2024-01-05T03:36:24.931Z,71.05
2024-01-05T03:37:24.962Z,69.86
2024-01-05T03:38:25.037Z,70.82
2024-01-05T03:39:25.083Z,70.03
2024-01-05T03:40:25.154Z,70.19
2024-01-05T03:41:25.204Z,69.75
2024-01-05T03:42:25.258Z,69.33
2024-01-05T03:43:25.311Z,68.93
2024-01-05T03:44:25.297Z,69.67
2024-01-05T03:45:25.414Z,68.98
2024-01-05T03:46:25.421Z,68.94
2024-01-05T03:47:25.457Z,70.32
2024-01-05T03:48:25.695Z,69.33
2024-01-05T03:49:25.700Z,69.65
2024-01-05T03:50:25.615Z,70.84
2024-01-05T03:51:25.709Z,69.21
2024-01-05T03:52:25.711Z,70.41
2024-01-05T03:53:25.744Z,68.31
2024-01-05T03:54:25.897Z,68.40
2024-01-05T03:55:25.850Z,68.02
2024-01-05T03:56:25.882Z,69.79
2024-01-05T03:57:26.006Z,69.08
2024-01-05T03:58:26.008Z,68.38
2024-01-05T03:59:26.022Z,68.36
2024-01-05T04:00:26.183Z,69.21
2024-01-05T04:01:26.238Z,69.60
2024-01-05T04:02:26.288Z,69.04
2024-01-05T04:03:26.377Z,69.18
2024-01-05T04:04:26.513Z,69.48
2024-01-05T04:05:26.367Z,67.66
2024-01-05T04:06:26.390Z,68.90
2024-01-05T04:07:26.483Z,67.35
2024-01-05T04:08:26.497Z,69.23
2024-01-05T04:09:26.589Z,68.86
2024-01-05T04:10:26.602Z,68.70
2024-01-05T04:11:26.659Z,67.02
2024-01-05T04:12:26.739Z,65.77
2024-01-05T04:13:26.725Z,66.55
2024-01-05T04:14:26.797Z,67.48
2024-01-05T04:15:26.916Z,67.09
2024-01-05T04:16:26.847Z,68.31
2024-01-05T04:17:26.918Z,67.09
2024-01-05T04:18:27.118Z,65.92
2024-01-05T04:19:27.042Z,67.41
2024-01-05T04:20:27.076Z,67.56
2024-01-05T04:21:27.146Z,68.36
2024-01-05T04:22:27.177Z,68.30
2024-01-05T04:23:27.250Z,67.71
2024-01-05T04:24:27.314Z,66.93
2024-01-05T04:25:27.317Z,67.71
2024-01-05T04:26:27.421Z,65.76
2024-01-05T04:27:27.488Z,67.09
2024-01-05T04:28:27.458Z,66.92
2024-01-05T04:29:27.538Z,66.61
2024-01-05T04:30:27.681Z,65.06
2024-01-05T04:31:27.769Z,66.18
2024-01-05T04:32:27.715Z,66.50
2024-01-05T04:33:27.851Z,65.63
2024-01-05T04:34:28.118Z,65.58
2024-01-05T04:35:27.843Z,66.67
2024-01-05T04:36:27.910Z,65.12
2024-01-05T04:37:27.912Z,64.95
2024-01-05T04:38:27.951Z,66.37
2024-01-05T04:39:28.031Z,65.88
2024-01-05T04:40:28.048Z,66.00
2024-01-05T04:41:28.072Z,64.99
2024-01-05T04:42:28.309Z,66.99
2024-01-05T04:43:28.184Z,64.33
2024-01-05T04:44:28.205Z,65.85
2024-01-05T04:45:36.008Z,50.00
2024-01-05T04:46:35.977Z,50.00
2024-01-05T04:47:36.131Z,50.00
2024-01-05T04:48:36.179Z,50.00
2024-01-05T04:49:36.068Z,50.00
2024-01-05T04:50:35.979Z,50.65
2024-01-05T04:51:36.093Z,50.51
2024-01-05T04:52:36.006Z,51.53
2024-01-05T04:53:36.012Z,50.77
2024-01-05T04:54:36.102Z,53.09
2024-01-05T04:55:35.991Z,51.28
2024-01-05T04:56:35.995Z,51.90
2024-01-05T04:57:36.056Z,51.49
2024-01-05T04:58:36.006Z,51.22
2024-01-05T04:59:36.004Z,51.45
2024-01-05T05:00:36.143Z,51.50
2024-01-05T05:01:35.998Z,50.68
2024-01-05T05:02:36.036Z,51.38
2024-01-05T05:03:36.115Z,51.24
2024-01-05T05:04:36.019Z,53.20
2024-01-05T05:05:36.044Z,50.58
2024-01-05T05:06:36.082Z,51.25
2024-01-05T05:07:36.032Z,50.18
2024-01-05T05:08:36.010Z,52.40
2024-01-05T05:09:36.155Z,50.96
2024-01-05T05:10:36.024Z,52.33
2024-01-05T05:11:36.021Z,52.09
2024-01-05T05:12:36.102Z,53.19
2024-01-05T05:13:36.064Z,52.46
2024-01-05T05:14:36.005Z,51.71
2024-01-05T05:15:36.087Z,52.40
2024-01-05T05:16:36.055Z,51.71
2024-01-05T05:17:36.114Z,52.82
2024-01-05T05:18:36.192Z,51.20
2024-01-05T05:19:36.120Z,51.06
2024-01-05T05:20:36.058Z,50.36
2024-01-05T05:21:36.078Z,51.15
2024-01-05T05:22:36.054Z,52.20
2024-01-05T05:23:36.048Z,52.20
2024-01-05T05:24:36.124Z,51.81
2024-01-05T05:25:36.047Z,52.33
2024-01-05T05:26:36.058Z,52.07
2024-01-05T05:27:36.134Z,50.48
2024-01-05T05:28:36.052Z,52.12
2024-01-05T05:29:36.064Z,50.00
2024-01-05T05:30:36.211Z,52.74
2024-01-05T05:31:36.107Z,51.88
2024-01-05T05:32:36.091Z,52.48
2024-01-05T05:33:36.213Z,53.57
2024-01-05T05:34:36.144Z,50.79
2024-01-05T05:35:36.094Z,52.01
2024-01-05T05:36:36.214Z,52.29
2024-01-05T05:37:36.201Z,52.91
2024-01-05T05:38:36.204Z,52.51
2024-01-05T05:39:36.347Z,52.31
2024-01-05T05:40:36.307Z,52.12
2024-01-05T05:41:36.381Z,53.07
2024-01-05T05:42:36.420Z,51.06
2024-01-05T05:43:36.481Z,52.14
2024-01-05T05:44:36.464Z,51.85
2024-01-05T05:45:36.597Z,54.43
2024-01-05T05:46:36.560Z,52.99
2024-01-05T05:47:36.717Z,53.83
2024-01-05T05:48:36.818Z,52.25
2024-01-05T05:49:36.886Z,50.00
2024-01-05T05:50:36.795Z,51.96
2024-01-05T05:51:36.873Z,51.78
2024-01-05T05:52:36.888Z,51.48
2024-01-05T05:53:36.914Z,53.13
2024-01-05T05:54:37.013Z,52.82
2024-01-05T05:55:36.989Z,52.56
2024-01-05T05:56:37.037Z,50.00
2024-01-05T05:57:37.276Z,50.73
2024-01-05T05:58:37.158Z,50.23
2024-01-05T05:59:37.191Z,52.81
2024-01-05T06:00:59.862Z,51.03
2024-01-05T06:01:37.241Z,51.15
2024-01-05T06:02:37.251Z,51.62
2024-01-05T06:03:37.290Z,52.56
2024-01-05T06:04:37.299Z,54.35
2024-01-05T06:05:37.294Z,54.68
2024-01-05T06:06:37.344Z,55.07
2024-01-05T06:07:37.252Z,55.84
2024-01-05T06:08:37.312Z,54.92
2024-01-05T06:09:37.315Z,53.29
2024-01-05T06:10:37.266Z,55.08
2024-01-05T06:11:37.258Z,54.13
2024-01-05T06:12:37.279Z,54.23
2024-01-05T06:13:38.274Z,51.84
2024-01-05T06:14:37.239Z,52.00
2024-01-05T06:15:37.405Z,52.14
2024-01-05T06:16:37.248Z,52.09
2024-01-05T06:17:37.298Z,50.58
2024-01-05T06:18:37.438Z,53.05
2024-01-05T06:19:37.376Z,52.14
2024-01-05T06:20:37.318Z,51.42
2024-01-05T06:21:37.504Z,51.94
2024-01-05T06:22:37.517Z,53.41
2024-01-05T06:23:37.506Z,53.13
2024-01-05T06:24:37.521Z,51.99
2024-01-05T06:25:37.521Z,52.42
2024-01-05T06:26:37.534Z,51.61
2024-01-05T06:27:39.365Z,52.54
2024-01-05T06:28:37.636Z,52.48
2024-01-05T06:29:37.657Z,52.85
2024-01-05T06:30:37.829Z,51.24
2024-01-05T06:31:37.812Z,51.63
2024-01-05T06:32:37.858Z,52.46
2024-01-05T06:33:37.953Z,52.75
2024-01-05T06:34:38.087Z,51.62
2024-01-05T06:35:37.923Z,53.33
2024-01-05T06:36:38.050Z,51.96
2024-01-05T06:37:38.010Z,52.60
2024-01-05T06:38:38.108Z,50.54
2024-01-05T06:39:38.238Z,51.80
2024-01-05T06:40:38.163Z,52.56
2024-01-05T06:41:38.225Z,50.00
2024-01-05T06:42:38.305Z,52.25
2024-01-05T06:43:38.340Z,50.67
2024-01-05T06:44:38.346Z,51.91
2024-01-05T06:46:01.171Z,51.65
2024-01-05T06:46:38.402Z,51.76
2024-01-05T06:47:38.432Z,52.32
2024-01-05T06:48:38.458Z,52.83
2024-01-05T06:49:38.536Z,54.43
2024-01-05T06:50:38.439Z,55.09
2024-01-05T06:51:38.384Z,54.01
2024-01-05T06:52:38.381Z,55.00
2024-01-05T06:53:38.369Z,52.71
2024-01-05T06:54:38.425Z,52.97
2024-01-05T06:55:38.409Z,52.95
2024-01-05T06:56:38.410Z,53.03
2024-01-05T06:57:38.402Z,55.06
2024-01-05T06:58:38.374Z,52.66
2024-01-05T06:59:38.377Z,52.37
2024-01-05T07:00:38.502Z,51.85
2024-01-05T07:01:38.436Z,53.85
2024-01-05T07:02:38.542Z,54.31
2024-01-05T07:03:38.681Z,54.72
2024-01-05T07:04:38.560Z,51.90
2024-01-05T07:05:38.643Z,51.37
2024-01-05T07:06:38.684Z,53.54
2024-01-05T07:07:38.690Z,54.49
2024-01-05T07:08:38.742Z,53.22
2024-01-05T07:09:38.827Z,52.31
2024-01-05T07:10:38.806Z,54.09
2024-01-05T07:11:38.877Z,53.69
2024-01-05T07:12:38.951Z,53.12
2024-01-05T07:13:38.931Z,54.52
2024-01-05T07:14:40.338Z,51.60
2024-01-05T07:15:39.060Z,51.34
2024-01-05T07:16:39.108Z,52.65
2024-01-05T07:17:39.235Z,51.90
2024-01-05T07:18:39.384Z,50.14
2024-01-05T07:19:39.347Z,54.25
2024-01-05T07:20:39.313Z,52.99
2024-01-05T07:21:39.340Z,53.08
2024-01-05T07:22:39.372Z,52.82
2024-01-05T07:23:39.438Z,52.82
2024-01-05T07:24:39.492Z,52.30
2024-01-05T07:25:39.492Z,53.04
2024-01-05T07:26:39.554Z,53.41
2024-01-05T07:27:39.608Z,51.87
2024-01-05T07:28:39.645Z,51.83
2024-01-05T07:29:39.729Z,52.94
2024-01-05T07:30:39.865Z,52.56
2024-01-05T07:31:39.748Z,52.71
2024-01-05T07:32:39.883Z,53.95
2024-01-05T07:33:39.990Z,51.47
2024-01-05T07:34:39.993Z,51.92
2024-01-05T07:35:39.911Z,52.29
2024-01-05T07:36:39.992Z,53.66
2024-01-05T07:37:40.032Z,53.23
2024-01-05T07:38:40.041Z,54.61
2024-01-05T07:39:40.131Z,53.42
2024-01-05T07:40:40.093Z,52.65
2024-01-05T07:41:40.176Z,53.13
2024-01-05T07:42:40.285Z,53.13
2024-01-05T07:43:40.269Z,51.76
2024-01-05T07:44:40.324Z,51.93
2024-01-05T07:45:40.383Z,51.39
2024-01-05T07:46:40.391Z,51.48
2024-01-05T07:47:40.580Z,53.13
2024-01-05T07:48:40.587Z,52.80
2024-01-05T07:49:40.678Z,51.36
2024-01-05T07:50:40.517Z,51.71
2024-01-05T07:51:42.394Z,51.54
2024-01-05T07:52:40.617Z,52.66
2024-01-05T07:53:40.650Z,51.36
2024-01-05T07:54:40.751Z,51.74
2024-01-05T07:55:40.721Z,51.41
2024-01-05T07:56:40.752Z,52.20
2024-01-05T07:57:40.909Z,51.51
2024-01-05T07:58:40.785Z,51.77
2024-01-05T07:59:40.840Z,52.65
2024-01-05T08:00:41.088Z,53.06
2024-01-05T08:01:41.031Z,51.65
2024-01-05T08:02:40.918Z,51.07
2024-01-05T08:03:41.096Z,52.04
2024-01-05T08:04:41.028Z,50.39
2024-01-05T08:05:42.028Z,51.99
2024-01-05T08:06:41.088Z,51.47
2024-01-05T08:07:41.109Z,55.26
2024-01-05T08:08:41.145Z,54.20
2024-01-05T08:09:41.302Z,51.83
2024-01-05T08:10:41.166Z,54.95
2024-01-05T08:11:41.828Z,52.98
2024-01-05T08:12:41.334Z,52.05
2024-01-05T08:13:41.350Z,52.12
2024-01-05T08:14:41.413Z,51.97
2024-01-05T08:15:41.545Z,51.54
2024-01-05T08:16:41.479Z,52.61
2024-01-05T08:17:41.645Z,51.79
2024-01-05T08:18:41.643Z,52.80
2024-01-05T08:19:41.654Z,50.80
2024-01-05T08:20:41.669Z,53.21
2024-01-05T08:21:41.978Z,51.35
2024-01-05T08:22:41.663Z,53.07
2024-01-05T08:23:41.730Z,52.23
2024-01-05T08:24:41.827Z,52.38
2024-01-05T08:25:42.014Z,54.54
2024-01-05T08:26:41.852Z,51.70
2024-01-05T08:27:41.879Z,50.25
2024-01-05T08:28:41.937Z,51.19
2024-01-05T08:29:41.976Z,52.42
2024-01-05T08:30:42.070Z,53.01
2024-01-05T08:31:42.235Z,52.45
2024-01-05T08:32:42.139Z,52.76
2024-01-05T08:33:42.291Z,51.67
2024-01-05T08:34:42.197Z,50.45
2024-01-05T08:35:42.136Z,50.59
2024-01-05T08:36:42.181Z,50.68
2024-01-05T08:37:42.248Z,51.62
2024-01-05T08:38:42.261Z,51.92
2024-01-05T08:39:42.310Z,51.93
2024-01-05T08:40:42.293Z,51.40
2024-01-05T08:41:42.371Z,53.46
2024-01-05T08:42:42.545Z,52.10
2024-01-05T08:43:42.542Z,52.46
2024-01-05T08:44:42.488Z,51.74
2024-01-05T08:45:42.666Z,52.21
2024-01-05T08:46:42.574Z,52.37
2024-01-05T08:47:42.665Z,51.73
2024-01-05T08:48:42.636Z,51.36
2024-01-05T08:49:42.736Z,52.81
2024-01-05T08:50:42.747Z,53.13
2024-01-05T08:51:42.762Z,52.06
2024-01-05T08:52:42.829Z,51.10
2024-01-05T08:53:42.831Z,50.53
2024-01-05T08:54:42.963Z,51.57
2024-01-05T08:55:42.949Z,52.88
2024-01-05T08:56:42.986Z,50.83
2024-01-05T08:57:43.071Z,53.41
2024-01-05T08:58:43.105Z,53.12
2024-01-05T08:59:43.120Z,53.64
2024-01-05T09:00:43.270Z,53.84
2024-01-05T09:01:43.256Z,52.98
2024-01-05T09:02:43.307Z,50.13
2024-01-05T09:03:43.414Z,52.89
2024-01-05T09:04:43.391Z,51.96
2024-01-05T09:05:43.407Z,53.10
2024-01-05T09:06:43.434Z,52.70
2024-01-05T09:07:43.465Z,52.57
2024-01-05T09:08:43.468Z,53.03
2024-01-05T09:09:43.595Z,52.57
2024-01-05T09:10:43.565Z,53.85
2024-01-05T09:11:43.598Z,53.47
2024-01-05T09:12:43.648Z,53.25
2024-01-05T09:13:43.675Z,54.23
2024-01-05T09:14:43.726Z,53.34
2024-01-05T09:15:43.809Z,52.77
2024-01-05T09:16:43.780Z,53.01
2024-01-05T09:17:43.928Z,52.87
2024-01-05T09:18:44.060Z,52.49
2024-01-05T09:19:43.995Z,52.40
2024-01-05T09:20:43.936Z,53.09
2024-01-05T09:21:43.998Z,53.90
2024-01-05T09:22:44.010Z,52.32
2024-01-05T09:23:44.095Z,54.67
2024-01-05T09:24:44.128Z,53.07
2024-01-05T09:25:46.576Z,52.12
2024-01-05T09:26:44.321Z,52.94
2024-01-05T09:27:44.397Z,51.71
2024-01-05T09:28:44.367Z,52.79
2024-01-05T09:29:44.392Z,52.57
2024-01-05T09:30:44.506Z,52.83
2024-01-05T09:31:44.487Z,52.65
2024-01-05T09:32:44.498Z,52.86
2024-01-05T09:33:44.516Z,51.92
2024-01-05T09:34:44.549Z,53.43
2024-01-05T09:35:44.511Z,52.86
2024-01-05T09:36:44.619Z,51.96
2024-01-05T09:37:44.575Z,51.96
2024-01-05T09:38:44.530Z,50.23
2024-01-05T09:39:44.678Z,52.34
2024-01-05T09:40:44.619Z,52.02
2024-01-05T09:41:44.656Z,52.33
2024-01-05T09:42:44.789Z,53.42
2024-01-05T09:43:44.740Z,51.43
2024-01-05T09:44:44.785Z,51.26
2024-01-05T09:45:44.850Z,53.72
2024-01-05T09:46:44.924Z,52.58
2024-01-05T09:47:45.045Z,51.73
2024-01-05T09:48:48.537Z,51.36
2024-01-05T09:49:46.439Z,51.41
2024-01-05T09:50:45.001Z,51.61
2024-01-05T09:51:45.031Z,51.04
2024-01-05T09:52:44.948Z,51.92
2024-01-05T09:53:44.905Z,52.05
2024-01-05T09:54:45.020Z,53.50
2024-01-05T09:55:44.943Z,51.01
2024-01-05T09:56:44.978Z,52.77
2024-01-05T09:57:44.971Z,52.40
2024-01-05T09:58:45.013Z,52.12
2024-01-05T09:59:44.950Z,53.39
2024-01-05T10:00:44.998Z,53.79
2024-01-05T10:01:44.970Z,52.41
2024-01-05T10:02:45.016Z,52.99
2024-01-05T10:03:45.166Z,52.49
2024-01-05T10:04:45.140Z,52.29
2024-01-05T10:05:45.177Z,51.14
2024-01-05T10:06:45.207Z,52.40
2024-01-05T10:07:45.211Z,54.14
2024-01-05T10:08:45.286Z,55.03
2024-01-05T10:09:45.374Z,52.32
2024-01-05T10:10:45.336Z,50.91
2024-01-05T10:11:45.449Z,52.94
2024-01-05T10:12:45.448Z,52.97
2024-01-05T10:13:45.481Z,52.69
2024-01-05T10:14:45.540Z,52.38
2024-01-05T10:15:45.593Z,53.25
2024-01-05T10:16:45.600Z,51.23
2024-01-05T10:17:45.770Z,52.79
2024-01-05T10:18:45.898Z,53.00
2024-01-05T10:19:45.994Z,52.65
2024-01-05T10:20:45.786Z,52.59
2024-01-05T10:21:45.906Z,53.03
2024-01-05T10:22:45.896Z,52.64
2024-01-05T10:23:45.966Z,54.80
2024-01-05T10:24:46.056Z,53.07
2024-01-05T10:25:46.002Z,54.29
2024-01-05T10:26:46.052Z,55.54
2024-01-05T10:27:46.203Z,53.12
2024-01-05T10:28:46.130Z,55.34
2024-01-05T10:29:46.654Z,55.62
2024-01-05T10:30:46.301Z,55.34
2024-01-05T10:31:46.347Z,56.30
2024-01-05T10:32:46.347Z,54.88
2024-01-05T10:33:46.459Z,55.41
2024-01-05T10:34:46.588Z,56.15
2024-01-05T10:35:48.098Z,56.78
2024-01-05T10:36:46.547Z,56.53
2024-01-05T10:37:46.564Z,56.80
2024-01-05T10:38:46.642Z,56.02
2024-01-05T10:39:46.678Z,59.68
2024-01-05T10:40:46.729Z,57.86
2024-01-05T10:41:48.390Z,57.98
2024-01-05T10:42:46.815Z,57.76
2024-01-05T10:43:46.788Z,57.53
2024-01-05T10:44:46.858Z,58.62
2024-01-05T10:45:46.969Z,58.86
2024-01-05T10:46:46.937Z,56.51
2024-01-05T10:47:47.780Z,57.67
2024-01-05T10:48:47.120Z,55.96
2024-01-05T10:49:47.151Z,56.30
2024-01-05T10:50:47.073Z,58.99
2024-01-05T10:51:47.152Z,57.94
2024-01-05T10:52:47.121Z,59.06
2024-01-05T10:53:47.202Z,58.34
2024-01-05T10:54:47.234Z,60.61
2024-01-05T10:55:47.285Z,59.81
2024-01-05T10:56:47.334Z,59.75
2024-01-05T10:57:47.443Z,59.34
2024-01-05T10:58:47.396Z,59.61
2024-01-05T10:59:47.477Z,60.14
2024-01-05T11:00:47.642Z,59.65
2024-01-05T11:01:47.586Z,60.14
2024-01-05T11:02:47.602Z,59.70
2024-01-05T11:03:47.719Z,60.93
2024-01-05T11:04:47.755Z,60.40
2024-01-05T11:05:47.945Z,61.21
2024-01-05T11:06:47.858Z,60.39
2024-01-05T11:07:47.827Z,60.37
2024-01-05T11:08:47.844Z,61.30
2024-01-05T11:09:47.927Z,59.99
2024-01-05T11:10:47.907Z,60.20
2024-01-05T11:11:48.034Z,61.35
2024-01-05T11:12:47.944Z,61.53
2024-01-05T11:13:48.004Z,60.29
2024-01-05T11:14:48.027Z,61.83
2024-01-05T11:15:48.128Z,60.00
2024-01-05T11:16:48.117Z,62.50
2024-01-05T11:17:48.251Z,59.94
2024-01-05T11:18:48.324Z,62.63
2024-01-05T11:19:48.416Z,60.16
2024-01-05T11:20:48.313Z,61.67
2024-01-05T11:21:48.355Z,62.62
2024-01-05T11:22:48.493Z,63.12
2024-01-05T11:23:48.452Z,62.03
2024-01-05T11:24:48.480Z,61.94
2024-01-05T11:25:48.480Z,63.45
2024-01-05T11:26:48.526Z,62.30
2024-01-05T11:27:48.586Z,62.92
2024-01-05T11:28:48.608Z,63.07
2024-01-05T11:29:48.683Z,63.16
2024-01-05T11:30:48.766Z,62.38
2024-01-05T11:31:48.998Z,63.40
2024-01-05T11:32:48.912Z,63.81
2024-01-05T11:33:49.000Z,62.82
2024-01-05T11:34:49.018Z,61.38
2024-01-05T11:35:48.937Z,61.64
2024-01-05T11:36:49.015Z,62.95
2024-01-05T11:37:49.025Z,61.92
2024-01-05T11:38:49.034Z,61.97
2024-01-05T11:39:49.359Z,62.42
2024-01-05T11:40:50.938Z,61.68
2024-01-05T11:41:49.185Z,63.70
2024-01-05T11:42:49.314Z,62.49
2024-01-05T11:43:49.328Z,63.48
2024-01-05T11:44:49.409Z,63.27
2024-01-05T11:45:49.465Z,62.29
2024-01-05T11:46:49.408Z,63.32
2024-01-05T11:47:49.567Z,63.04
2024-01-05T11:48:49.693Z,63.63
2024-01-05T11:49:49.872Z,60.78
2024-01-05T11:50:49.673Z,62.73
2024-01-05T11:51:49.695Z,63.15
2024-01-05T11:52:49.696Z,62.59
2024-01-05T11:53:49.734Z,63.09
2024-01-05T11:54:49.795Z,64.24
2024-01-05T11:55:49.863Z,62.93
2024-01-05T11:56:49.899Z,62.65
2024-01-05T11:57:49.927Z,62.69
2024-01-05T11:58:49.927Z,63.00
2024-01-05T11:59:51.777Z,61.57
2024-01-05T12:00:50.212Z,63.23
2024-01-05T12:01:50.102Z,62.17
2024-01-05T12:02:50.140Z,64.47
2024-01-05T12:03:50.366Z,64.72
2024-01-05T12:04:50.351Z,63.80
2024-01-05T12:05:51.331Z,63.50
2024-01-05T12:06:50.386Z,63.05
2024-01-05T12:07:50.402Z,63.50
2024-01-05T12:08:50.472Z,64.31
2024-01-05T12:09:50.537Z,63.54
2024-01-05T12:10:50.504Z,63.73
2024-01-05T12:11:50.577Z,64.62
2024-01-05T12:12:50.618Z,65.09
2024-01-05T12:13:50.655Z,64.18
2024-01-05T12:14:50.724Z,65.16
2024-01-05T12:15:56.213Z,63.36
2024-01-05T12:16:51.754Z,62.93
2024-01-05T12:17:50.822Z,63.54
2024-01-05T12:18:51.203Z,63.49
2024-01-05T12:19:50.869Z,64.31
2024-01-05T12:20:50.742Z,64.55
2024-01-05T12:21:50.856Z,65.05
2024-01-05T12:22:50.761Z,64.59
2024-01-05T12:23:50.770Z,64.99
2024-01-05T12:24:50.802Z,64.05
2024-01-05T12:25:50.792Z,64.31
2024-01-05T12:26:50.773Z,64.39
2024-01-05T12:27:50.779Z,64.94
2024-01-05T12:28:50.856Z,64.41
2024-01-05T12:29:50.908Z,65.08
2024-01-05T12:30:51.074Z,64.71
2024-01-05T12:31:51.096Z,64.12
2024-01-05T12:32:51.086Z,64.94
2024-01-05T12:33:51.160Z,64.52
2024-01-05T12:34:51.140Z,63.69
2024-01-05T12:35:51.198Z,64.75
2024-01-05T12:36:51.217Z,64.97
2024-01-05T12:37:51.218Z,64.20
2024-01-05T12:38:51.298Z,64.73
2024-01-05T12:39:51.379Z,62.99
2024-01-05T12:40:51.333Z,65.54
2024-01-05T12:41:51.355Z,65.57
2024-01-05T12:42:51.506Z,64.93
2024-01-05T12:43:52.071Z,64.55
2024-01-05T12:44:51.519Z,64.71
2024-01-05T12:45:51.581Z,65.65
2024-01-05T12:46:52.958Z,66.58
2024-01-05T12:47:51.696Z,65.60
2024-01-05T12:48:51.928Z,65.54
2024-01-05T12:49:51.853Z,65.72
2024-01-05T12:50:51.835Z,65.53
2024-01-05T12:51:51.927Z,64.32
2024-01-05T12:52:51.901Z,66.36